JTC427 KBED-KGSO
Flight info
| Callsign | JTC427 |
|---|---|
| Flight time | N/A |
| Altitude | 40000 |
| Route | SSOXS Q167 RIFLE HEADI Q97 SAWED COUPN RDU |
| Aircraft | CL60/M-SBDE1E2E3FGHIJ4J5J7M3RWXYZ/LB1V1D1 |
Departure
| Time | 2026-05-07 15:56 |
|---|---|
| Airport | Laurence G Hanscom Field (KBED) |
Arrival
| Time | N/A |
|---|---|
| Airport | Piedmont Triad International Airport (KGSO) |
| Time | Latitude | Longitude | Altitude | Speed | Heading |
|---|---|---|---|---|---|
| 2026-05-07 15:36 | 42.46373 | -71.29031 | 139 ft | 0 kts | 347° |
| 2026-05-07 15:51 | 42.46392 | -71.29030 | 139 ft | 6 kts | 12° |
| 2026-05-07 15:51 | 42.46449 | -71.29015 | 139 ft | 9 kts | 8° |
| 2026-05-07 15:52 | 42.46522 | -71.28999 | 139 ft | 12 kts | 10° |
| 2026-05-07 15:52 | 42.46593 | -71.28943 | 139 ft | 12 kts | 37° |
| 2026-05-07 15:52 | 42.46618 | -71.28918 | 139 ft | 0 kts | 37° |
| 2026-05-07 15:52 | 42.46623 | -71.28912 | 139 ft | 0 kts | 37° |
| 2026-05-07 15:53 | 42.46661 | -71.28875 | 139 ft | 12 kts | 37° |
| 2026-05-07 15:53 | 42.46743 | -71.28791 | 139 ft | 16 kts | 37° |
| 2026-05-07 15:53 | 42.46829 | -71.28676 | 139 ft | 17 kts | 64° |
| 2026-05-07 15:53 | 42.46827 | -71.28552 | 139 ft | 14 kts | 91° |
| 2026-05-07 15:54 | 42.46819 | -71.28404 | 139 ft | 17 kts | 98° |
| 2026-05-07 15:54 | 42.46799 | -71.28225 | 139 ft | 20 kts | 98° |
| 2026-05-07 15:54 | 42.46778 | -71.28015 | 139 ft | 24 kts | 97° |
| 2026-05-07 15:54 | 42.46757 | -71.27776 | 139 ft | 26 kts | 97° |
| 2026-05-07 15:55 | 42.46825 | -71.27607 | 139 ft | 23 kts | 6° |
| 2026-05-07 15:55 | 42.46955 | -71.27673 | 139 ft | 34 kts | 285° |
| 2026-05-07 15:55 | 42.47041 | -71.28503 | 139 ft | 139 kts | 278° |
| 2026-05-07 15:55 | 42.47180 | -71.30068 | 582 ft | 185 kts | 276° |
| 2026-05-07 15:56 | 42.47282 | -71.31696 | 1976 ft | 179 kts | 277° |
| 2026-05-07 15:56 | 42.47381 | -71.33451 | 2806 ft | 205 kts | 277° |
| 2026-05-07 15:56 | 42.47146 | -71.35396 | 3762 ft | 226 kts | 249° |
| 2026-05-07 15:56 | 42.46001 | -71.36884 | 4922 ft | 241 kts | 214° |
| 2026-05-07 15:57 | 42.44482 | -71.37846 | 5996 ft | 252 kts | 210° |
| 2026-05-07 15:57 | 42.42834 | -71.38865 | 7158 ft | 266 kts | 211° |
| 2026-05-07 15:57 | 42.41204 | -71.39868 | 8756 ft | 261 kts | 211° |
| 2026-05-07 15:57 | 42.39603 | -71.40854 | 10367 ft | 256 kts | 212° |
| 2026-05-07 15:58 | 42.37960 | -71.41884 | 11236 ft | 278 kts | 212° |
| 2026-05-07 15:58 | 42.36146 | -71.43025 | 11960 ft | 301 kts | 212° |
| 2026-05-07 15:58 | 42.34202 | -71.44237 | 12969 ft | 312 kts | 212° |
| 2026-05-07 15:58 | 42.32245 | -71.45450 | 14175 ft | 314 kts | 211° |
| 2026-05-07 15:59 | 42.30275 | -71.46674 | 15250 ft | 318 kts | 211° |
| 2026-05-07 15:59 | 42.28267 | -71.47922 | 16266 ft | 323 kts | 211° |
| 2026-05-07 15:59 | 42.26194 | -71.49211 | 17195 ft | 330 kts | 211° |
| 2026-05-07 15:59 | 42.24094 | -71.50517 | 18060 ft | 336 kts | 211° |
| 2026-05-07 16:00 | 42.21934 | -71.51857 | 19015 ft | 339 kts | 212° |
| 2026-05-07 16:00 | 42.19801 | -71.53181 | 19937 ft | 341 kts | 212° |
| 2026-05-07 16:00 | 42.17644 | -71.54520 | 20781 ft | 344 kts | 213° |
| 2026-05-07 16:00 | 42.15491 | -71.55853 | 21666 ft | 344 kts | 213° |
| 2026-05-07 16:01 | 42.13287 | -71.57218 | 22491 ft | 346 kts | 214° |
| 2026-05-07 16:01 | 42.11098 | -71.58575 | 23192 ft | 349 kts | 215° |
| 2026-05-07 16:01 | 42.08902 | -71.59933 | 24001 ft | 349 kts | 215° |
| 2026-05-07 16:01 | 42.06697 | -71.61297 | 24772 ft | 348 kts | 215° |
| 2026-05-07 16:02 | 42.04513 | -71.62643 | 25611 ft | 344 kts | 215° |
| 2026-05-07 16:02 | 42.02316 | -71.63999 | 26275 ft | 344 kts | 216° |
| 2026-05-07 16:02 | 42.00156 | -71.65332 | 26922 ft | 343 kts | 216° |
| 2026-05-07 16:02 | 41.97990 | -71.66672 | 27417 ft | 347 kts | 216° |
| 2026-05-07 16:03 | 41.97357 | -71.67064 | 27573 ft | 347 kts | 215° |
| 2026-05-07 16:03 | 41.96886 | -71.67356 | 27692 ft | 339 kts | 216° |
| 2026-05-07 16:03 | 41.90670 | -71.71201 | 28981 ft | 347 kts | 217° |
| 2026-05-07 16:04 | 41.88457 | -71.72565 | 29350 ft | 350 kts | 217° |
| 2026-05-07 16:04 | 41.86230 | -71.73931 | 29851 ft | 349 kts | 217° |
| 2026-05-07 16:04 | 41.84048 | -71.75268 | 30416 ft | 347 kts | 217° |
| 2026-05-07 16:04 | 41.81838 | -71.76618 | 31039 ft | 343 kts | 218° |
| 2026-05-07 16:05 | 41.79658 | -71.77953 | 31581 ft | 341 kts | 218° |
| 2026-05-07 16:05 | 41.77489 | -71.79282 | 32084 ft | 339 kts | 217° |
| 2026-05-07 16:05 | 41.75299 | -71.80622 | 32572 ft | 338 kts | 218° |
| 2026-05-07 16:05 | 41.73095 | -71.81972 | 33017 ft | 338 kts | 217° |
| 2026-05-07 16:06 | 41.70896 | -71.83315 | 33473 ft | 337 kts | 218° |
| 2026-05-07 16:06 | 41.69818 | -71.83974 | 33699 ft | 336 kts | 218° |
| 2026-05-07 16:06 | 41.66987 | -71.85712 | 34183 ft | 335 kts | 217° |
| 2026-05-07 16:06 | 41.64851 | -71.87019 | 34439 ft | 338 kts | 218° |
| 2026-05-07 16:07 | 41.62699 | -71.88334 | 34820 ft | 341 kts | 218° |
| 2026-05-07 16:07 | 41.60542 | -71.89647 | 35196 ft | 340 kts | 218° |
| 2026-05-07 16:07 | 41.58619 | -71.90818 | 35514 ft | 340 kts | 217° |
| 2026-05-07 16:08 | 41.56035 | -71.92389 | 35935 ft | 340 kts | 218° |
| 2026-05-07 16:08 | 41.51699 | -71.95026 | 36510 ft | 341 kts | 218° |
| 2026-05-07 16:08 | 41.49528 | -71.96347 | 36731 ft | 343 kts | 218° |
| 2026-05-07 16:09 | 41.47364 | -71.97659 | 37020 ft | 344 kts | 218° |
| 2026-05-07 16:09 | 41.45174 | -71.98986 | 37320 ft | 343 kts | 218° |
| 2026-05-07 16:09 | 41.43003 | -72.00302 | 37573 ft | 344 kts | 218° |
| 2026-05-07 16:09 | 41.40812 | -72.01627 | 37850 ft | 343 kts | 218° |
| 2026-05-07 16:10 | 41.38658 | -72.02930 | 38101 ft | 343 kts | 218° |
| 2026-05-07 16:10 | 41.36452 | -72.04264 | 38361 ft | 343 kts | 218° |
| 2026-05-07 16:10 | 41.34295 | -72.05567 | 38587 ft | 343 kts | 218° |
| 2026-05-07 16:10 | 41.32106 | -72.06890 | 38761 ft | 345 kts | 218° |
| 2026-05-07 16:11 | 41.29945 | -72.08192 | 39057 ft | 343 kts | 218° |
| 2026-05-07 16:11 | 41.27757 | -72.09512 | 39229 ft | 343 kts | 218° |
| 2026-05-07 16:11 | 41.25568 | -72.10830 | 39426 ft | 343 kts | 218° |
| 2026-05-07 16:11 | 41.23415 | -72.12128 | 39554 ft | 344 kts | 218° |
| 2026-05-07 16:12 | 41.21206 | -72.13457 | 39697 ft | 345 kts | 218° |
| 2026-05-07 16:12 | 41.19029 | -72.14767 | 39851 ft | 346 kts | 218° |
| 2026-05-07 16:12 | 41.16824 | -72.16093 | 39884 ft | 349 kts | 218° |
| 2026-05-07 16:13 | 41.12366 | -72.18774 | 39886 ft | 354 kts | 218° |
| 2026-05-07 16:13 | 41.07852 | -72.21480 | 39891 ft | 357 kts | 218° |
| 2026-05-07 16:14 | 41.03305 | -72.24198 | 39885 ft | 358 kts | 217° |
| 2026-05-07 16:14 | 40.98769 | -72.26904 | 39894 ft | 356 kts | 218° |
| 2026-05-07 16:15 | 40.94242 | -72.29602 | 39889 ft | 354 kts | 218° |
| 2026-05-07 16:15 | 40.92115 | -72.31087 | 39896 ft | 342 kts | 224° |
| 2026-05-07 16:15 | 40.90234 | -72.32966 | 39896 ft | 331 kts | 231° |
| 2026-05-07 16:16 | 40.86939 | -72.37228 | 39899 ft | 330 kts | 233° |
| 2026-05-07 16:16 | 40.83657 | -72.41513 | 39895 ft | 330 kts | 233° |
| 2026-05-07 16:17 | 40.80398 | -72.45756 | 39898 ft | 330 kts | 233° |
| 2026-05-07 16:17 | 40.76847 | -72.49723 | 39902 ft | 335 kts | 230° |
| 2026-05-07 16:18 | 40.73243 | -72.53619 | 39899 ft | 335 kts | 230° |
| 2026-05-07 16:18 | 40.69654 | -72.57508 | 39899 ft | 333 kts | 231° |
| 2026-05-07 16:19 | 40.66617 | -72.61977 | 39901 ft | 324 kts | 238° |
| 2026-05-07 16:19 | 40.63755 | -72.66560 | 39902 ft | 324 kts | 237° |
| 2026-05-07 16:20 | 40.60862 | -72.71182 | 39904 ft | 325 kts | 237° |
| 2026-05-07 16:20 | 40.57991 | -72.75762 | 39899 ft | 325 kts | 237° |
| 2026-05-07 16:21 | 40.55501 | -72.79730 | 39896 ft | 325 kts | 237° |
| 2026-05-07 16:21 | 40.53806 | -72.82587 | 39761 ft | 310 kts | 239° |
| 2026-05-07 16:22 | 40.52445 | -72.84781 | 39852 ft | 310 kts | 237° |
| 2026-05-07 16:22 | 40.49625 | -72.89214 | 39891 ft | 317 kts | 237° |
| 2026-05-07 16:23 | 40.46769 | -72.93710 | 39891 ft | 323 kts | 237° |
| 2026-05-07 16:23 | 40.43892 | -72.98240 | 39891 ft | 326 kts | 237° |
| 2026-05-07 16:24 | 40.40950 | -73.02869 | 39902 ft | 328 kts | 238° |
| 2026-05-07 16:24 | 40.38027 | -73.07468 | 39904 ft | 329 kts | 236° |
| 2026-05-07 16:25 | 40.35098 | -73.12071 | 39900 ft | 328 kts | 237° |
| 2026-05-07 16:25 | 40.32154 | -73.16695 | 39903 ft | 328 kts | 237° |
| 2026-05-07 16:26 | 40.29230 | -73.21283 | 39895 ft | 328 kts | 237° |
| 2026-05-07 16:26 | 40.26295 | -73.25883 | 39904 ft | 327 kts | 237° |
| 2026-05-07 16:27 | 40.23371 | -73.30460 | 39899 ft | 327 kts | 237° |
| 2026-05-07 16:27 | 40.20446 | -73.35034 | 39902 ft | 328 kts | 237° |
| 2026-05-07 16:28 | 40.17501 | -73.39633 | 39913 ft | 329 kts | 237° |
| 2026-05-07 16:28 | 40.14555 | -73.44227 | 39900 ft | 329 kts | 237° |
| 2026-05-07 16:29 | 40.11612 | -73.48809 | 39923 ft | 329 kts | 237° |
| 2026-05-07 16:29 | 40.08675 | -73.53377 | 39905 ft | 328 kts | 237° |
| 2026-05-07 16:30 | 40.05727 | -73.57954 | 39909 ft | 328 kts | 237° |
| 2026-05-07 16:30 | 40.02787 | -73.62513 | 39908 ft | 328 kts | 237° |
| 2026-05-07 16:31 | 39.99832 | -73.67089 | 39902 ft | 329 kts | 236° |
| 2026-05-07 16:31 | 39.96656 | -73.71405 | 39905 ft | 339 kts | 229° |
| 2026-05-07 16:31 | 39.94655 | -73.73201 | 39909 ft | 350 kts | 221° |
| 2026-05-07 16:32 | 39.92437 | -73.74590 | 39904 ft | 359 kts | 216° |
| 2026-05-07 16:32 | 39.87769 | -73.77074 | 39901 ft | 361 kts | 216° |
| 2026-05-07 16:33 | 39.83118 | -73.79549 | 39900 ft | 361 kts | 216° |
| 2026-05-07 16:33 | 39.78458 | -73.82026 | 39906 ft | 362 kts | 216° |
| 2026-05-07 16:34 | 39.73767 | -73.84517 | 39914 ft | 363 kts | 216° |
| 2026-05-07 16:34 | 39.69089 | -73.86998 | 39901 ft | 364 kts | 215° |
| 2026-05-07 16:35 | 39.64417 | -73.89471 | 39914 ft | 363 kts | 215° |
| 2026-05-07 16:35 | 39.59732 | -73.91947 | 39903 ft | 362 kts | 216° |
| 2026-05-07 16:36 | 39.55061 | -73.94415 | 39905 ft | 362 kts | 215° |
| 2026-05-07 16:36 | 39.50347 | -73.96903 | 39906 ft | 364 kts | 215° |
| 2026-05-07 16:37 | 39.45641 | -73.99384 | 39905 ft | 366 kts | 214° |
| 2026-05-07 16:37 | 39.41106 | -74.02103 | 39910 ft | 351 kts | 224° |
| 2026-05-07 16:38 | 39.37346 | -74.05963 | 39909 ft | 343 kts | 230° |
| 2026-05-07 16:38 | 39.33701 | -74.09941 | 39908 ft | 343 kts | 230° |
| 2026-05-07 16:39 | 39.30044 | -74.13927 | 39906 ft | 344 kts | 229° |
| 2026-05-07 16:39 | 39.26386 | -74.17909 | 39909 ft | 345 kts | 230° |
| 2026-05-07 16:40 | 39.22686 | -74.21933 | 39914 ft | 346 kts | 230° |
| 2026-05-07 16:40 | 39.18974 | -74.25962 | 39919 ft | 345 kts | 230° |
| 2026-05-07 16:41 | 39.15298 | -74.29948 | 39922 ft | 344 kts | 229° |
| 2026-05-07 16:41 | 39.11638 | -74.33912 | 39926 ft | 346 kts | 230° |
| 2026-05-07 16:42 | 39.07925 | -74.37929 | 39924 ft | 347 kts | 230° |
| 2026-05-07 16:42 | 39.04236 | -74.41913 | 39926 ft | 347 kts | 231° |
| 2026-05-07 16:43 | 39.00545 | -74.45894 | 39924 ft | 347 kts | 229° |
| 2026-05-07 16:43 | 38.96837 | -74.49888 | 39924 ft | 347 kts | 230° |
| 2026-05-07 16:44 | 38.93161 | -74.53915 | 39925 ft | 344 kts | 232° |
| 2026-05-07 16:44 | 38.89638 | -74.58049 | 39925 ft | 344 kts | 232° |
| 2026-05-07 16:45 | 38.86087 | -74.62208 | 39925 ft | 344 kts | 233° |
| 2026-05-07 16:45 | 38.82558 | -74.66338 | 39930 ft | 344 kts | 231° |
| 2026-05-07 16:46 | 38.79055 | -74.70431 | 39926 ft | 345 kts | 231° |
| 2026-05-07 16:46 | 38.77665 | -74.72038 | 39807 ft | 350 kts | 230° |